sensor_id;sensor_type;location;lat;lon;timestamp;temperature;humidity
24384;DHT22;12504;52.870;8.798;2023-06-26T00:00:24;20.00;99.90
24384;DHT22;12504;52.870;8.798;2023-06-26T00:02:50;20.00;99.90
24384;DHT22;12504;52.870;8.798;2023-06-26T00:05:16;19.90;99.90
24384;DHT22;12504;52.870;8.798;2023-06-26T00:07:41;19.90;99.90
24384;DHT22;12504;52.870;8.798;2023-06-26T00:10:07;19.80;99.90
24384;DHT22;12504;52.870;8.798;2023-06-26T00:12:34;19.80;99.90
24384;DHT22;12504;52.870;8.798;2023-06-26T00:14:59;19.80;99.90
24384;DHT22;12504;52.870;8.798;2023-06-26T00:17:25;19.80;99.90
24384;DHT22;12504;52.870;8.798;2023-06-26T00:19:51;19.70;99.90
24384;DHT22;12504;52.870;8.798;2023-06-26T00:22:16;19.70;99.90
24384;DHT22;12504;52.870;8.798;2023-06-26T00:24:42;19.70;99.90
24384;DHT22;12504;52.870;8.798;2023-06-26T00:27:07;19.60;99.90
24384;DHT22;12504;52.870;8.798;2023-06-26T00:29:33;19.60;99.90
24384;DHT22;12504;52.870;8.798;2023-06-26T00:31:59;19.60;99.90
24384;DHT22;12504;52.870;8.798;2023-06-26T00:34:25;19.50;99.90
24384;DHT22;12504;52.870;8.798;2023-06-26T00:36:51;19.50;99.90
24384;DHT22;12504;52.870;8.798;2023-06-26T00:39:17;19.50;99.90
24384;DHT22;12504;52.870;8.798;2023-06-26T00:41:42;19.50;99.90
24384;DHT22;12504;52.870;8.798;2023-06-26T00:44:10;19.50;99.90
24384;DHT22;12504;52.870;8.798;2023-06-26T00:46:36;19.40;99.90
24384;DHT22;12504;52.870;8.798;2023-06-26T00:49:04;19.40;99.90
24384;DHT22;12504;52.870;8.798;2023-06-26T00:51:31;19.40;99.90
24384;DHT22;12504;52.870;8.798;2023-06-26T00:53:57;19.40;99.90
24384;DHT22;12504;52.870;8.798;2023-06-26T00:56:23;19.40;99.90
24384;DHT22;12504;52.870;8.798;2023-06-26T00:58:49;19.30;99.90
24384;DHT22;12504;52.870;8.798;2023-06-26T01:01:15;19.30;99.90
24384;DHT22;12504;52.870;8.798;2023-06-26T01:03:44;19.30;99.90
24384;DHT22;12504;52.870;8.798;2023-06-26T01:06:11;19.30;99.90
24384;DHT22;12504;52.870;8.798;2023-06-26T01:08:39;19.30;99.90
24384;DHT22;12504;52.870;8.798;2023-06-26T01:11:06;19.30;99.90
24384;DHT22;12504;52.870;8.798;2023-06-26T01:13:33;19.30;99.90
24384;DHT22;12504;52.870;8.798;2023-06-26T01:15:59;19.30;99.90
24384;DHT22;12504;52.870;8.798;2023-06-26T01:18:26;19.30;99.90
24384;DHT22;12504;52.870;8.798;2023-06-26T01:20:52;19.30;99.90
24384;DHT22;12504;52.870;8.798;2023-06-26T01:23:24;19.30;99.90
24384;DHT22;12504;52.870;8.798;2023-06-26T01:28:34;19.20;99.90
24384;DHT22;12504;52.870;8.798;2023-06-26T01:31:02;19.20;99.90
24384;DHT22;12504;52.870;8.798;2023-06-26T01:33:30;19.20;99.90
24384;DHT22;12504;52.870;8.798;2023-06-26T01:35:56;19.20;99.90
24384;DHT22;12504;52.870;8.798;2023-06-26T01:38:22;19.10;99.90
24384;DHT22;12504;52.870;8.798;2023-06-26T01:40:56;19.10;99.90
24384;DHT22;12504;52.870;8.798;2023-06-26T01:43:41;19.00;99.90
24384;DHT22;12504;52.870;8.798;2023-06-26T01:46:25;19.00;99.90
24384;DHT22;12504;52.870;8.798;2023-06-26T01:49:03;19.00;99.90
24384;DHT22;12504;52.870;8.798;2023-06-26T01:51:34;19.00;99.90
24384;DHT22;12504;52.870;8.798;2023-06-26T01:54:01;19.10;99.90
24384;DHT22;12504;52.870;8.798;2023-06-26T01:56:28;19.00;99.90
24384;DHT22;12504;52.870;8.798;2023-06-26T01:58:55;19.00;99.90
24384;DHT22;12504;52.870;8.798;2023-06-26T02:01:21;19.00;99.90
24384;DHT22;12504;52.870;8.798;2023-06-26T02:03:49;19.10;99.90
24384;DHT22;12504;52.870;8.798;2023-06-26T02:06:14;19.00;99.90
24384;DHT22;12504;52.870;8.798;2023-06-26T02:08:41;19.00;99.90
24384;DHT22;12504;52.870;8.798;2023-06-26T02:11:07;19.00;99.90
24384;DHT22;12504;52.870;8.798;2023-06-26T02:13:32;18.90;99.90
24384;DHT22;12504;52.870;8.798;2023-06-26T02:15:58;19.00;99.90
24384;DHT22;12504;52.870;8.798;2023-06-26T02:18:24;19.00;99.90
24384;DHT22;12504;52.870;8.798;2023-06-26T02:20:50;18.90;99.90
24384;DHT22;12504;52.870;8.798;2023-06-26T02:23:15;18.90;99.90
24384;DHT22;12504;52.870;8.798;2023-06-26T02:25:41;18.90;99.90
24384;DHT22;12504;52.870;8.798;2023-06-26T02:28:09;18.90;99.90
24384;DHT22;12504;52.870;8.798;2023-06-26T02:30:35;18.90;99.90
24384;DHT22;12504;52.870;8.798;2023-06-26T02:33:01;18.90;99.90
24384;DHT22;12504;52.870;8.798;2023-06-26T02:35:26;18.80;99.90
24384;DHT22;12504;52.870;8.798;2023-06-26T02:37:52;18.90;99.90
24384;DHT22;12504;52.870;8.798;2023-06-26T02:40:17;18.90;99.90
24384;DHT22;12504;52.870;8.798;2023-06-26T02:42:43;18.90;99.90
24384;DHT22;12504;52.870;8.798;2023-06-26T02:45:09;18.90;99.90
24384;DHT22;12504;52.870;8.798;2023-06-26T02:47:35;18.80;99.90
24384;DHT22;12504;52.870;8.798;2023-06-26T02:50:02;18.80;99.90
24384;DHT22;12504;52.870;8.798;2023-06-26T02:52:39;18.80;99.90
24384;DHT22;12504;52.870;8.798;2023-06-26T02:55:05;18.70;99.90
24384;DHT22;12504;52.870;8.798;2023-06-26T02:57:31;18.70;99.90
24384;DHT22;12504;52.870;8.798;2023-06-26T02:59:57;18.80;99.90
24384;DHT22;12504;52.870;8.798;2023-06-26T03:02:22;18.80;99.90
24384;DHT22;12504;52.870;8.798;2023-06-26T03:04:48;18.80;99.90
24384;DHT22;12504;52.870;8.798;2023-06-26T03:07:15;18.80;99.90
24384;DHT22;12504;52.870;8.798;2023-06-26T03:09:41;18.70;99.90
24384;DHT22;12504;52.870;8.798;2023-06-26T03:12:08;18.70;99.90
24384;DHT22;12504;52.870;8.798;2023-06-26T03:14:34;18.70;99.90
24384;DHT22;12504;52.870;8.798;2023-06-26T03:17:00;18.70;99.90
24384;DHT22;12504;52.870;8.798;2023-06-26T03:19:31;18.70;99.90
24384;DHT22;12504;52.870;8.798;2023-06-26T03:22:15;18.70;99.90
24384;DHT22;12504;52.870;8.798;2023-06-26T03:24:41;18.70;99.90
24384;DHT22;12504;52.870;8.798;2023-06-26T03:27:06;18.70;99.90
24384;DHT22;12504;52.870;8.798;2023-06-26T03:29:36;18.70;99.90
24384;DHT22;12504;52.870;8.798;2023-06-26T03:32:02;18.70;99.90
24384;DHT22;12504;52.870;8.798;2023-06-26T03:34:28;18.70;99.90
24384;DHT22;12504;52.870;8.798;2023-06-26T03:36:54;18.70;99.90
24384;DHT22;12504;52.870;8.798;2023-06-26T03:39:19;18.70;99.90
24384;DHT22;12504;52.870;8.798;2023-06-26T03:41:46;18.70;99.90
24384;DHT22;12504;52.870;8.798;2023-06-26T03:44:11;18.70;99.90
24384;DHT22;12504;52.870;8.798;2023-06-26T03:46:44;18.70;99.90
24384;DHT22;12504;52.870;8.798;2023-06-26T03:49:14;18.70;99.90
24384;DHT22;12504;52.870;8.798;2023-06-26T03:51:40;18.70;99.90
24384;DHT22;12504;52.870;8.798;2023-06-26T03:54:08;18.70;99.90
24384;DHT22;12504;52.870;8.798;2023-06-26T03:56:34;18.70;99.90
24384;DHT22;12504;52.870;8.798;2023-06-26T03:58:59;18.80;99.90
24384;DHT22;12504;52.870;8.798;2023-06-26T04:01:26;18.70;99.90
24384;DHT22;12504;52.870;8.798;2023-06-26T04:03:51;18.80;99.90
24384;DHT22;12504;52.870;8.798;2023-06-26T04:06:17;18.80;99.90
24384;DHT22;12504;52.870;8.798;2023-06-26T04:08:42;18.80;99.90
24384;DHT22;12504;52.870;8.798;2023-06-26T04:11:08;18.80;99.90
24384;DHT22;12504;52.870;8.798;2023-06-26T04:13:34;18.80;99.90
24384;DHT22;12504;52.870;8.798;2023-06-26T04:16:00;18.90;99.90
24384;DHT22;12504;52.870;8.798;2023-06-26T04:18:25;18.90;99.90
24384;DHT22;12504;52.870;8.798;2023-06-26T04:21:10;18.90;99.90
24384;DHT22;12504;52.870;8.798;2023-06-26T04:23:37;18.90;99.90
24384;DHT22;12504;52.870;8.798;2023-06-26T04:26:04;19.00;99.90
24384;DHT22;12504;52.870;8.798;2023-06-26T04:28:31;18.90;99.90
24384;DHT22;12504;52.870;8.798;2023-06-26T04:30:58;18.80;99.90
24384;DHT22;12504;52.870;8.798;2023-06-26T04:33:24;18.70;99.90
24384;DHT22;12504;52.870;8.798;2023-06-26T04:35:52;18.70;99.90
24384;DHT22;12504;52.870;8.798;2023-06-26T04:38:18;18.70;99.90
24384;DHT22;12504;52.870;8.798;2023-06-26T04:40:44;18.70;99.90
24384;DHT22;12504;52.870;8.798;2023-06-26T04:43:10;18.80;99.90
24384;DHT22;12504;52.870;8.798;2023-06-26T04:45:35;19.00;99.90
24384;DHT22;12504;52.870;8.798;2023-06-26T04:48:02;19.10;99.90
24384;DHT22;12504;52.870;8.798;2023-06-26T04:50:30;19.20;99.90
24384;DHT22;12504;52.870;8.798;2023-06-26T04:52:59;19.30;99.90
24384;DHT22;12504;52.870;8.798;2023-06-26T04:55:25;19.40;99.90
24384;DHT22;12504;52.870;8.798;2023-06-26T04:57:51;19.40;99.90
24384;DHT22;12504;52.870;8.798;2023-06-26T05:00:18;19.50;99.90
24384;DHT22;12504;52.870;8.798;2023-06-26T05:02:45;19.60;99.90
24384;DHT22;12504;52.870;8.798;2023-06-26T05:05:13;19.70;99.90
24384;DHT22;12504;52.870;8.798;2023-06-26T05:07:41;19.80;99.90
24384;DHT22;12504;52.870;8.798;2023-06-26T05:10:06;19.90;99.90
24384;DHT22;12504;52.870;8.798;2023-06-26T05:12:33;20.00;99.90
24384;DHT22;12504;52.870;8.798;2023-06-26T05:14:58;20.10;99.90
24384;DHT22;12504;52.870;8.798;2023-06-26T05:17:24;20.20;99.90
24384;DHT22;12504;52.870;8.798;2023-06-26T05:19:50;20.30;99.90
24384;DHT22;12504;52.870;8.798;2023-06-26T05:22:17;20.30;99.90
24384;DHT22;12504;52.870;8.798;2023-06-26T05:24:46;20.40;99.90
24384;DHT22;12504;52.870;8.798;2023-06-26T05:27:12;20.50;99.90
24384;DHT22;12504;52.870;8.798;2023-06-26T05:29:46;20.70;99.90
24384;DHT22;12504;52.870;8.798;2023-06-26T05:32:15;20.80;99.90
24384;DHT22;12504;52.870;8.798;2023-06-26T05:34:43;20.80;99.90
24384;DHT22;12504;52.870;8.798;2023-06-26T05:37:16;20.80;99.90
24384;DHT22;12504;52.870;8.798;2023-06-26T05:39:44;20.90;99.90
24384;DHT22;12504;52.870;8.798;2023-06-26T05:42:10;21.10;99.90
24384;DHT22;12504;52.870;8.798;2023-06-26T05:44:36;21.20;99.90
24384;DHT22;12504;52.870;8.798;2023-06-26T05:47:01;21.30;99.90
24384;DHT22;12504;52.870;8.798;2023-06-26T05:49:27;21.50;99.90
24384;DHT22;12504;52.870;8.798;2023-06-26T05:51:53;21.50;99.90
24384;DHT22;12504;52.870;8.798;2023-06-26T05:54:18;21.60;99.90
24384;DHT22;12504;52.870;8.798;2023-06-26T05:56:45;21.70;99.90
24384;DHT22;12504;52.870;8.798;2023-06-26T05:59:12;21.80;99.90
24384;DHT22;12504;52.870;8.798;2023-06-26T06:01:38;21.90;99.90
24384;DHT22;12504;52.870;8.798;2023-06-26T06:04:04;22.00;99.90
24384;DHT22;12504;52.870;8.798;2023-06-26T06:06:29;22.20;99.90
24384;DHT22;12504;52.870;8.798;2023-06-26T06:08:55;22.30;99.90
24384;DHT22;12504;52.870;8.798;2023-06-26T06:11:20;22.40;99.90
24384;DHT22;12504;52.870;8.798;2023-06-26T06:13:46;22.40;99.90
24384;DHT22;12504;52.870;8.798;2023-06-26T06:16:11;22.50;99.90
24384;DHT22;12504;52.870;8.798;2023-06-26T06:18:37;22.60;99.90
24384;DHT22;12504;52.870;8.798;2023-06-26T06:21:02;22.70;99.90
24384;DHT22;12504;52.870;8.798;2023-06-26T06:23:28;22.80;99.90
24384;DHT22;12504;52.870;8.798;2023-06-26T06:25:53;22.90;99.90
24384;DHT22;12504;52.870;8.798;2023-06-26T06:28:19;23.00;99.90
24384;DHT22;12504;52.870;8.798;2023-06-26T06:30:45;23.10;99.90
24384;DHT22;12504;52.870;8.798;2023-06-26T06:33:13;23.20;99.90
24384;DHT22;12504;52.870;8.798;2023-06-26T06:35:38;23.30;99.90
24384;DHT22;12504;52.870;8.798;2023-06-26T06:38:04;23.50;99.90
24384;DHT22;12504;52.870;8.798;2023-06-26T06:40:30;23.70;99.90
24384;DHT22;12504;52.870;8.798;2023-06-26T06:42:55;24.00;99.90
24384;DHT22;12504;52.870;8.798;2023-06-26T06:45:21;24.10;99.90
24384;DHT22;12504;52.870;8.798;2023-06-26T06:47:47;24.20;99.90
24384;DHT22;12504;52.870;8.798;2023-06-26T06:50:12;24.40;99.90
24384;DHT22;12504;52.870;8.798;2023-06-26T06:52:39;24.30;99.90
24384;DHT22;12504;52.870;8.798;2023-06-26T06:55:07;24.30;99.90
24384;DHT22;12504;52.870;8.798;2023-06-26T06:57:35;24.20;99.90
24384;DHT22;12504;52.870;8.798;2023-06-26T07:00:12;24.30;99.90
24384;DHT22;12504;52.870;8.798;2023-06-26T07:02:43;24.40;99.90
24384;DHT22;12504;52.870;8.798;2023-06-26T07:05:10;24.50;99.90
24384;DHT22;12504;52.870;8.798;2023-06-26T07:07:36;24.50;99.90
24384;DHT22;12504;52.870;8.798;2023-06-26T07:10:11;24.60;99.90
24384;DHT22;12504;52.870;8.798;2023-06-26T07:12:37;24.70;99.90
24384;DHT22;12504;52.870;8.798;2023-06-26T07:15:04;24.70;99.90
24384;DHT22;12504;52.870;8.798;2023-06-26T07:17:31;24.70;99.90
24384;DHT22;12504;52.870;8.798;2023-06-26T07:19:56;24.70;99.90
24384;DHT22;12504;52.870;8.798;2023-06-26T07:22:23;24.80;99.90
24384;DHT22;12504;52.870;8.798;2023-06-26T07:24:48;24.80;99.90
24384;DHT22;12504;52.870;8.798;2023-06-26T07:27:15;24.80;99.90
24384;DHT22;12504;52.870;8.798;2023-06-26T07:29:41;24.80;99.90
24384;DHT22;12504;52.870;8.798;2023-06-26T07:32:07;24.80;99.90
24384;DHT22;12504;52.870;8.798;2023-06-26T07:34:32;24.80;99.90
24384;DHT22;12504;52.870;8.798;2023-06-26T07:36:59;24.80;99.90
24384;DHT22;12504;52.870;8.798;2023-06-26T07:39:24;24.80;99.90
24384;DHT22;12504;52.870;8.798;2023-06-26T07:41:50;24.80;99.90
24384;DHT22;12504;52.870;8.798;2023-06-26T07:44:16;24.90;99.90
24384;DHT22;12504;52.870;8.798;2023-06-26T07:46:41;25.00;99.90
24384;DHT22;12504;52.870;8.798;2023-06-26T07:49:07;25.10;99.90
24384;DHT22;12504;52.870;8.798;2023-06-26T07:51:32;25.30;99.90
24384;DHT22;12504;52.870;8.798;2023-06-26T07:53:58;25.40;99.90
24384;DHT22;12504;52.870;8.798;2023-06-26T07:56:23;25.50;99.90
24384;DHT22;12504;52.870;8.798;2023-06-26T07:58:49;25.50;99.90
24384;DHT22;12504;52.870;8.798;2023-06-26T08:01:15;25.50;99.90
24384;DHT22;12504;52.870;8.798;2023-06-26T08:03:40;25.40;99.90
24384;DHT22;12504;52.870;8.798;2023-06-26T08:06:06;25.30;99.90
24384;DHT22;12504;52.870;8.798;2023-06-26T08:08:32;25.30;99.90
24384;DHT22;12504;52.870;8.798;2023-06-26T08:10:57;25.10;99.90
24384;DHT22;12504;52.870;8.798;2023-06-26T08:13:23;25.10;99.90
24384;DHT22;12504;52.870;8.798;2023-06-26T08:15:48;25.10;99.90
24384;DHT22;12504;52.870;8.798;2023-06-26T08:18:14;25.20;99.90
24384;DHT22;12504;52.870;8.798;2023-06-26T08:20:39;25.10;99.90
24384;DHT22;12504;52.870;8.798;2023-06-26T08:23:05;24.90;99.90
24384;DHT22;12504;52.870;8.798;2023-06-26T08:25:31;24.80;99.90
24384;DHT22;12504;52.870;8.798;2023-06-26T08:27:56;24.70;99.90
24384;DHT22;12504;52.870;8.798;2023-06-26T08:30:22;24.70;99.90
24384;DHT22;12504;52.870;8.798;2023-06-26T08:32:50;24.80;99.90
24384;DHT22;12504;52.870;8.798;2023-06-26T08:35:16;24.80;99.90
24384;DHT22;12504;52.870;8.798;2023-06-26T08:37:42;24.70;99.90
24384;DHT22;12504;52.870;8.798;2023-06-26T08:40:08;24.40;99.90
24384;DHT22;12504;52.870;8.798;2023-06-26T08:42:33;23.70;99.90
24384;DHT22;12504;52.870;8.798;2023-06-26T08:45:00;23.20;99.90
24384;DHT22;12504;52.870;8.798;2023-06-26T08:47:26;22.30;99.90
24384;DHT22;12504;52.870;8.798;2023-06-26T08:49:59;21.60;99.90
24384;DHT22;12504;52.870;8.798;2023-06-26T08:52:35;21.10;99.90
24384;DHT22;12504;52.870;8.798;2023-06-26T08:55:02;20.60;99.90
24384;DHT22;12504;52.870;8.798;2023-06-26T08:57:32;20.30;99.90
24384;DHT22;12504;52.870;8.798;2023-06-26T08:59:58;20.20;99.90
24384;DHT22;12504;52.870;8.798;2023-06-26T09:02:24;20.00;99.90
24384;DHT22;12504;52.870;8.798;2023-06-26T09:04:50;19.90;99.90
24384;DHT22;12504;52.870;8.798;2023-06-26T09:07:16;19.90;99.90
24384;DHT22;12504;52.870;8.798;2023-06-26T09:09:42;20.00;99.90
24384;DHT22;12504;52.870;8.798;2023-06-26T09:12:08;20.20;99.90
24384;DHT22;12504;52.870;8.798;2023-06-26T09:14:34;20.30;99.90
24384;DHT22;12504;52.870;8.798;2023-06-26T09:17:00;20.40;99.90
24384;DHT22;12504;52.870;8.798;2023-06-26T09:19:26;20.70;99.90
24384;DHT22;12504;52.870;8.798;2023-06-26T09:21:52;21.00;99.90
24384;DHT22;12504;52.870;8.798;2023-06-26T09:24:18;21.40;99.90
24384;DHT22;12504;52.870;8.798;2023-06-26T09:26:43;21.40;99.90
24384;DHT22;12504;52.870;8.798;2023-06-26T09:29:09;21.60;99.90
24384;DHT22;12504;52.870;8.798;2023-06-26T09:31:37;21.80;99.90
24384;DHT22;12504;52.870;8.798;2023-06-26T09:34:03;21.80;99.90
24384;DHT22;12504;52.870;8.798;2023-06-26T09:36:30;21.90;99.90
24384;DHT22;12504;52.870;8.798;2023-06-26T09:39:07;22.10;99.90
24384;DHT22;12504;52.870;8.798;2023-06-26T09:41:36;22.30;99.90
24384;DHT22;12504;52.870;8.798;2023-06-26T09:44:04;22.60;99.90
24384;DHT22;12504;52.870;8.798;2023-06-26T09:46:30;23.00;99.90
24384;DHT22;12504;52.870;8.798;2023-06-26T09:49:04;23.10;99.90
24384;DHT22;12504;52.870;8.798;2023-06-26T09:51:31;23.00;99.90
24384;DHT22;12504;52.870;8.798;2023-06-26T09:54:01;22.90;99.90
24384;DHT22;12504;52.870;8.798;2023-06-26T09:56:30;23.00;99.90
24384;DHT22;12504;52.870;8.798;2023-06-26T09:58:57;23.20;99.90
24384;DHT22;12504;52.870;8.798;2023-06-26T10:01:24;23.00;99.90
24384;DHT22;12504;52.870;8.798;2023-06-26T10:03:50;22.90;99.90
24384;DHT22;12504;52.870;8.798;2023-06-26T10:06:19;23.00;99.90
24384;DHT22;12504;52.870;8.798;2023-06-26T10:08:45;22.90;99.90
24384;DHT22;12504;52.870;8.798;2023-06-26T10:11:16;23.00;99.90
24384;DHT22;12504;52.870;8.798;2023-06-26T10:13:43;23.00;99.90
24384;DHT22;12504;52.870;8.798;2023-06-26T10:16:12;23.10;99.90
24384;DHT22;12504;52.870;8.798;2023-06-26T10:18:39;23.30;99.90
24384;DHT22;12504;52.870;8.798;2023-06-26T10:21:06;23.60;99.90
24384;DHT22;12504;52.870;8.798;2023-06-26T10:23:34;23.90;99.90
24384;DHT22;12504;52.870;8.798;2023-06-26T10:26:02;24.00;99.90
24384;DHT22;12504;52.870;8.798;2023-06-26T10:28:31;24.00;99.90
24384;DHT22;12504;52.870;8.798;2023-06-26T10:30:58;23.90;99.90
24384;DHT22;12504;52.870;8.798;2023-06-26T10:33:26;23.80;99.90
24384;DHT22;12504;52.870;8.798;2023-06-26T10:35:51;23.50;99.90
24384;DHT22;12504;52.870;8.798;2023-06-26T10:38:18;23.70;99.90
24384;DHT22;12504;52.870;8.798;2023-06-26T10:40:45;23.60;99.90
24384;DHT22;12504;52.870;8.798;2023-06-26T10:43:12;23.30;99.90
24384;DHT22;12504;52.870;8.798;2023-06-26T10:45:46;23.20;99.90
24384;DHT22;12504;52.870;8.798;2023-06-26T10:48:17;23.20;99.90
24384;DHT22;12504;52.870;8.798;2023-06-26T10:50:43;23.40;99.90
24384;DHT22;12504;52.870;8.798;2023-06-26T10:53:16;23.80;99.90
24384;DHT22;12504;52.870;8.798;2023-06-26T10:56:01;24.80;95.60
24384;DHT22;12504;52.870;8.798;2023-06-26T11:03:40;25.50;52.70
24384;DHT22;12504;52.870;8.798;2023-06-26T11:06:13;25.20;91.00
24384;DHT22;12504;52.870;8.798;2023-06-26T11:11:14;24.50;99.90
24384;DHT22;12504;52.870;8.798;2023-06-26T11:13:41;24.10;99.90
24384;DHT22;12504;52.870;8.798;2023-06-26T11:16:07;24.00;99.90
24384;DHT22;12504;52.870;8.798;2023-06-26T11:18:32;24.40;99.90
24384;DHT22;12504;52.870;8.798;2023-06-26T11:21:12;25.80;71.10
24384;DHT22;12504;52.870;8.798;2023-06-26T11:23:44;27.50;1.00
24384;DHT22;12504;52.870;8.798;2023-06-26T11:26:21;27.70;63.80
24384;DHT22;12504;52.870;8.798;2023-06-26T11:28:55;27.00;99.90
24384;DHT22;12504;52.870;8.798;2023-06-26T11:31:31;25.60;1.00
24384;DHT22;12504;52.870;8.798;2023-06-26T11:34:02;24.70;42.00
24384;DHT22;12504;52.870;8.798;2023-06-26T11:36:29;24.10;63.50
24384;DHT22;12504;52.870;8.798;2023-06-26T11:38:57;23.60;83.30
24384;DHT22;12504;52.870;8.798;2023-06-26T11:41:28;23.10;81.90
24384;DHT22;12504;52.870;8.798;2023-06-26T11:43:55;22.80;97.90
24384;DHT22;12504;52.870;8.798;2023-06-26T11:46:21;23.00;95.80
24384;DHT22;12504;52.870;8.798;2023-06-26T11:48:48;24.20;29.70
24384;DHT22;12504;52.870;8.798;2023-06-26T11:51:17;25.50;1.00
24384;DHT22;12504;52.870;8.798;2023-06-26T11:53:44;26.00;1.00
24384;DHT22;12504;52.870;8.798;2023-06-26T11:56:14;26.70;14.10
24384;DHT22;12504;52.870;8.798;2023-06-26T12:01:34;29.00;99.90
24384;DHT22;12504;52.870;8.798;2023-06-26T12:04:02;29.50;1.00
24384;DHT22;12504;52.870;8.798;2023-06-26T12:06:29;29.80;97.00
24384;DHT22;12504;52.870;8.798;2023-06-26T12:08:55;29.60;1.00
24384;DHT22;12504;52.870;8.798;2023-06-26T12:11:22;29.90;1.00
24384;DHT22;12504;52.870;8.798;2023-06-26T12:13:49;30.30;99.90
24384;DHT22;12504;52.870;8.798;2023-06-26T12:16:15;30.60;99.90
24384;DHT22;12504;52.870;8.798;2023-06-26T12:18:41;30.10;99.90
24384;DHT22;12504;52.870;8.798;2023-06-26T12:21:06;29.80;99.90
24384;DHT22;12504;52.870;8.798;2023-06-26T12:23:33;28.40;43.90
24384;DHT22;12504;52.870;8.798;2023-06-26T12:26:18;26.80;1.00
24384;DHT22;12504;52.870;8.798;2023-06-26T12:28:44;25.60;99.90
24384;DHT22;12504;52.870;8.798;2023-06-26T12:31:15;24.60;1.00
24384;DHT22;12504;52.870;8.798;2023-06-26T12:33:43;23.90;1.00
24384;DHT22;12504;52.870;8.798;2023-06-26T12:36:13;24.00;1.00
24384;DHT22;12504;52.870;8.798;2023-06-26T12:38:40;24.20;1.00
24384;DHT22;12504;52.870;8.798;2023-06-26T12:41:05;24.90;1.00
24384;DHT22;12504;52.870;8.798;2023-06-26T12:43:38;26.40;99.90
24384;DHT22;12504;52.870;8.798;2023-06-26T12:46:04;26.80;99.90
24384;DHT22;12504;52.870;8.798;2023-06-26T12:48:40;26.50;99.90
24384;DHT22;12504;52.870;8.798;2023-06-26T12:51:10;26.20;99.90
24384;DHT22;12504;52.870;8.798;2023-06-26T12:53:38;26.10;99.90
24384;DHT22;12504;52.870;8.798;2023-06-26T12:56:07;25.50;99.90
24384;DHT22;12504;52.870;8.798;2023-06-26T12:58:34;25.40;99.90
24384;DHT22;12504;52.870;8.798;2023-06-26T13:01:01;26.00;86.70
24384;DHT22;12504;52.870;8.798;2023-06-26T13:03:26;25.90;99.90
24384;DHT22;12504;52.870;8.798;2023-06-26T13:05:52;25.50;99.90
24384;DHT22;12504;52.870;8.798;2023-06-26T13:08:17;25.10;3.40
24384;DHT22;12504;52.870;8.798;2023-06-26T13:10:44;24.80;99.90
24384;DHT22;12504;52.870;8.798;2023-06-26T13:13:10;24.70;1.00
24384;DHT22;12504;52.870;8.798;2023-06-26T13:15:36;24.80;1.00
24384;DHT22;12504;52.870;8.798;2023-06-26T13:18:01;24.80;1.00
24384;DHT22;12504;52.870;8.798;2023-06-26T13:20:27;25.00;1.00
24384;DHT22;12504;52.870;8.798;2023-06-26T13:22:53;25.30;99.90
24384;DHT22;12504;52.870;8.798;2023-06-26T13:25:20;26.10;99.90
24384;DHT22;12504;52.870;8.798;2023-06-26T13:27:46;26.40;99.90
24384;DHT22;12504;52.870;8.798;2023-06-26T13:30:12;26.50;99.90
24384;DHT22;12504;52.870;8.798;2023-06-26T13:32:38;26.60;99.90
24384;DHT22;12504;52.870;8.798;2023-06-26T13:35:03;26.70;99.90
24384;DHT22;12504;52.870;8.798;2023-06-26T13:37:30;26.70;1.00
24384;DHT22;12504;52.870;8.798;2023-06-26T13:39:55;26.60;1.00
24384;DHT22;12504;52.870;8.798;2023-06-26T13:42:23;27.10;1.00
24384;DHT22;12504;52.870;8.798;2023-06-26T13:44:48;27.50;1.00
24384;DHT22;12504;52.870;8.798;2023-06-26T13:47:15;27.70;99.90
24384;DHT22;12504;52.870;8.798;2023-06-26T13:49:40;28.00;1.00
24384;DHT22;12504;52.870;8.798;2023-06-26T13:52:06;27.70;99.90
24384;DHT22;12504;52.870;8.798;2023-06-26T13:54:36;27.00;25.80
24384;DHT22;12504;52.870;8.798;2023-06-26T13:57:06;26.40;99.90
24384;DHT22;12504;52.870;8.798;2023-06-26T13:59:33;25.80;1.00
24384;DHT22;12504;52.870;8.798;2023-06-26T14:01:59;25.20;99.90
24384;DHT22;12504;52.870;8.798;2023-06-26T14:04:25;25.00;99.90
24384;DHT22;12504;52.870;8.798;2023-06-26T14:06:52;25.10;99.90
24384;DHT22;12504;52.870;8.798;2023-06-26T14:09:18;25.30;99.90
24384;DHT22;12504;52.870;8.798;2023-06-26T14:11:44;25.10;99.90
24384;DHT22;12504;52.870;8.798;2023-06-26T14:14:09;24.80;99.90
24384;DHT22;12504;52.870;8.798;2023-06-26T14:16:35;24.70;99.90
24384;DHT22;12504;52.870;8.798;2023-06-26T14:19:01;24.30;1.00
24384;DHT22;12504;52.870;8.798;2023-06-26T14:21:27;24.20;1.00
24384;DHT22;12504;52.870;8.798;2023-06-26T14:23:54;24.70;99.90
24384;DHT22;12504;52.870;8.798;2023-06-26T14:26:20;25.30;99.90
24384;DHT22;12504;52.870;8.798;2023-06-26T14:28:46;25.60;1.00
24384;DHT22;12504;52.870;8.798;2023-06-26T14:31:12;25.70;96.50
24384;DHT22;12504;52.870;8.798;2023-06-26T14:33:38;25.60;1.00
24384;DHT22;12504;52.870;8.798;2023-06-26T14:36:03;25.30;99.90
24384;DHT22;12504;52.870;8.798;2023-06-26T14:38:29;25.30;99.90
24384;DHT22;12504;52.870;8.798;2023-06-26T14:40:55;25.50;99.90
24384;DHT22;12504;52.870;8.798;2023-06-26T14:43:20;25.30;99.90
24384;DHT22;12504;52.870;8.798;2023-06-26T14:45:46;24.80;99.90
24384;DHT22;12504;52.870;8.798;2023-06-26T14:48:12;24.50;99.90
24384;DHT22;12504;52.870;8.798;2023-06-26T14:50:37;24.70;99.90
24384;DHT22;12504;52.870;8.798;2023-06-26T14:53:03;24.80;99.90
24384;DHT22;12504;52.870;8.798;2023-06-26T14:55:29;24.70;99.90
24384;DHT22;12504;52.870;8.798;2023-06-26T14:57:54;24.30;99.90
24384;DHT22;12504;52.870;8.798;2023-06-26T15:00:20;24.10;1.00
24384;DHT22;12504;52.870;8.798;2023-06-26T15:02:47;23.90;1.00
24384;DHT22;12504;52.870;8.798;2023-06-26T15:05:15;24.20;99.90
24384;DHT22;12504;52.870;8.798;2023-06-26T15:07:41;24.40;99.90
24384;DHT22;12504;52.870;8.798;2023-06-26T15:10:07;24.40;1.00
24384;DHT22;12504;52.870;8.798;2023-06-26T15:12:33;24.10;1.00
24384;DHT22;12504;52.870;8.798;2023-06-26T15:14:58;23.90;99.90
24384;DHT22;12504;52.870;8.798;2023-06-26T15:17:24;23.70;99.90
24384;DHT22;12504;52.870;8.798;2023-06-26T15:19:50;23.70;99.90
24384;DHT22;12504;52.870;8.798;2023-06-26T15:22:18;23.60;99.90
24384;DHT22;12504;52.870;8.798;2023-06-26T15:24:44;23.50;99.90
24384;DHT22;12504;52.870;8.798;2023-06-26T15:27:10;23.40;99.90
24384;DHT22;12504;52.870;8.798;2023-06-26T15:29:35;23.50;99.90
24384;DHT22;12504;52.870;8.798;2023-06-26T15:32:01;23.60;99.90
24384;DHT22;12504;52.870;8.798;2023-06-26T15:34:27;23.60;99.90
24384;DHT22;12504;52.870;8.798;2023-06-26T15:36:52;23.40;99.90
24384;DHT22;12504;52.870;8.798;2023-06-26T15:39:18;23.40;24.00
24384;DHT22;12504;52.870;8.798;2023-06-26T15:41:44;23.30;59.40
24384;DHT22;12504;52.870;8.798;2023-06-26T15:44:10;23.40;99.90